createdAt,value
2023-02-19T00:01:32.477Z,11.24
2023-02-19T00:04:00.068Z,11.30
2023-02-19T00:06:27.363Z,11.24
2023-02-19T00:08:53.858Z,11.17
2023-02-19T00:11:21.438Z,11.22
2023-02-19T00:13:49.081Z,11.20
2023-02-19T00:16:17.048Z,11.20
2023-02-19T00:18:43.643Z,11.19
2023-02-19T00:21:10.543Z,11.11
2023-02-19T00:23:37.186Z,11.08
2023-02-19T00:26:17.539Z,11.10
2023-02-19T00:28:45.184Z,11.10
2023-02-19T00:31:19.211Z,11.10
2023-02-19T00:33:47.150Z,11.05
2023-02-19T00:36:14.211Z,11.05
2023-02-19T00:38:41.870Z,11.15
2023-02-19T00:41:20.766Z,11.13
2023-02-19T00:43:54.970Z,11.06
2023-02-19T00:46:41.668Z,11.05
2023-02-19T00:49:08.511Z,11.11
2023-02-19T00:51:36.543Z,11.13
2023-02-19T00:54:03.461Z,11.04
2023-02-19T00:56:29.795Z,11.01
2023-02-19T00:58:56.972Z,11.05
2023-02-19T01:01:23.446Z,11.05
2023-02-19T01:03:50.068Z,11.05
2023-02-19T01:06:17.735Z,11.08
2023-02-19T01:08:44.324Z,11.05
2023-02-19T01:11:12.338Z,11.06
2023-02-19T01:13:39.490Z,10.99
2023-02-19T01:16:13.753Z,11.01
2023-02-19T01:18:41.694Z,11.01
2023-02-19T01:21:10.017Z,10.90
2023-02-19T01:23:37.048Z,10.95
2023-02-19T01:26:04.878Z,10.94
2023-02-19T01:28:31.278Z,10.89
2023-02-19T01:31:00.885Z,10.88
2023-02-19T01:33:27.413Z,10.91
2023-02-19T01:35:53.732Z,10.92
2023-02-19T01:38:20.080Z,10.93
2023-02-19T01:40:53.611Z,10.86
2023-02-19T01:43:20.037Z,10.90
2023-02-19T01:45:46.998Z,10.90
2023-02-19T01:48:16.442Z,10.90
2023-02-19T01:50:47.369Z,10.84
2023-02-19T01:53:16.108Z,10.85
2023-02-19T01:55:44.575Z,10.91
2023-02-19T01:58:11.291Z,10.83
2023-02-19T02:00:37.768Z,10.82
2023-02-19T02:03:04.573Z,10.77
2023-02-19T02:05:30.990Z,10.87
2023-02-19T02:08:16.751Z,10.78
2023-02-19T02:10:43.149Z,10.82
2023-02-19T02:13:09.637Z,10.70
2023-02-19T02:15:40.026Z,10.68
2023-02-19T02:18:17.569Z,10.65
2023-02-19T02:21:02.905Z,10.71
2023-02-19T02:23:44.549Z,10.64
2023-02-19T02:26:19.966Z,10.60
2023-02-19T02:28:54.200Z,10.60
2023-02-19T02:31:31.842Z,10.64
2023-02-19T02:34:01.539Z,10.59
2023-02-19T02:36:34.370Z,10.59
2023-02-19T02:39:03.403Z,10.59
2023-02-19T02:41:30.034Z,10.64
2023-02-19T02:43:56.382Z,10.64
2023-02-19T02:46:34.675Z,10.62
2023-02-19T02:49:03.770Z,10.55
2023-02-19T02:51:33.369Z,10.59
2023-02-19T02:54:25.729Z,10.57
2023-02-19T02:56:52.979Z,10.57
2023-02-19T02:59:21.811Z,10.55
2023-02-19T03:02:12.102Z,10.50
2023-02-19T03:05:06.066Z,10.47
2023-02-19T03:07:42.010Z,10.41
2023-02-19T03:10:12.202Z,10.42
2023-02-19T03:12:58.664Z,10.35
2023-02-19T03:15:47.073Z,10.38
2023-02-19T03:18:32.596Z,10.39
2023-02-19T03:21:00.589Z,10.39
2023-02-19T03:23:48.584Z,10.45
2023-02-19T03:26:17.732Z,10.46
2023-02-19T03:29:04.148Z,10.48
2023-02-19T03:31:31.813Z,10.48
2023-02-19T03:34:00.037Z,10.28
2023-02-19T03:36:30.212Z,10.33
2023-02-19T03:39:02.746Z,10.39
2023-02-19T03:41:36.791Z,10.40
2023-02-19T03:44:03.114Z,10.38
2023-02-19T03:46:41.449Z,10.40
2023-02-19T03:49:28.031Z,10.44
2023-02-19T03:51:58.073Z,10.41
2023-02-19T03:54:44.710Z,10.43
2023-02-19T03:57:29.909Z,10.40
2023-02-19T04:00:00.094Z,10.41
2023-02-19T04:02:32.774Z,10.42
2023-02-19T04:05:14.137Z,10.39
2023-02-19T04:07:43.441Z,10.41
2023-02-19T04:10:10.050Z,10.38
2023-02-19T04:12:39.112Z,10.37
2023-02-19T04:15:12.010Z,10.38
2023-02-19T04:17:47.677Z,10.41
2023-02-19T04:20:14.377Z,10.42
2023-02-19T04:22:41.848Z,10.45
2023-02-19T04:25:08.974Z,10.50
2023-02-19T04:27:38.921Z,10.47
2023-02-19T04:30:06.236Z,10.45
2023-02-19T04:32:32.654Z,10.45
2023-02-19T04:34:59.014Z,10.44
2023-02-19T04:37:25.365Z,10.42
2023-02-19T04:39:51.863Z,10.42
2023-02-19T04:42:18.231Z,10.35
2023-02-19T04:44:44.600Z,10.40
2023-02-19T04:47:10.971Z,10.37
2023-02-19T04:49:37.356Z,10.45
2023-02-19T04:52:03.806Z,10.39
2023-02-19T04:54:30.162Z,10.40
2023-02-19T04:56:57.499Z,10.39
2023-02-19T04:59:23.830Z,10.38
2023-02-19T05:01:50.250Z,10.45
2023-02-19T05:04:16.667Z,10.40
2023-02-19T05:06:43.093Z,10.33
2023-02-19T05:09:09.532Z,10.31
2023-02-19T05:11:36.012Z,10.37
2023-02-19T05:14:02.399Z,10.39
2023-02-19T05:16:29.007Z,10.31
2023-02-19T05:18:55.413Z,10.36
2023-02-19T05:21:21.859Z,10.39
2023-02-19T05:23:48.185Z,10.47
2023-02-19T05:26:18.450Z,10.44
2023-02-19T05:28:45.628Z,10.41
2023-02-19T05:31:13.138Z,10.35
2023-02-19T05:33:39.995Z,10.37
2023-02-19T05:36:10.735Z,10.35
2023-02-19T05:38:37.562Z,10.28
2023-02-19T05:41:10.246Z,10.35
2023-02-19T05:43:37.126Z,10.31
2023-02-19T05:46:03.635Z,10.25
2023-02-19T05:48:30.065Z,10.28
2023-02-19T05:51:01.158Z,10.28
2023-02-19T05:53:27.538Z,10.27
2023-02-19T05:55:53.873Z,10.26
2023-02-19T05:58:20.296Z,10.20
2023-02-19T06:00:46.667Z,10.20
2023-02-19T06:03:12.972Z,10.26
2023-02-19T06:05:39.389Z,10.23
2023-02-19T06:08:05.718Z,10.22
2023-02-19T06:10:32.242Z,10.21
2023-02-19T06:12:58.636Z,10.04
2023-02-19T06:15:24.935Z,9.96
2023-02-19T06:17:51.309Z,9.91
2023-02-19T06:20:17.781Z,9.89
2023-02-19T06:22:44.202Z,9.88
2023-02-19T06:25:12.559Z,9.76
2023-02-19T06:27:39.444Z,9.77
2023-02-19T06:30:06.232Z,9.84
2023-02-19T06:32:32.653Z,9.89
2023-02-19T06:34:59.107Z,9.64
2023-02-19T06:37:25.441Z,9.90
2023-02-19T06:39:51.781Z,9.66
2023-02-19T06:42:18.551Z,9.70
2023-02-19T06:44:45.614Z,9.57
2023-02-19T06:47:12.065Z,9.79
2023-02-19T06:49:41.545Z,9.81
2023-02-19T06:52:07.887Z,9.53
2023-02-19T06:54:34.200Z,9.70
2023-02-19T06:57:00.536Z,9.68
2023-02-19T06:59:27.025Z,9.76
2023-02-19T07:01:53.419Z,9.61
2023-02-19T07:04:19.879Z,9.64
2023-02-19T07:06:46.478Z,9.68
2023-02-19T07:09:12.851Z,9.75
2023-02-19T07:11:39.942Z,9.67
2023-02-19T07:14:07.816Z,9.76
2023-02-19T07:16:34.650Z,9.87
2023-02-19T07:19:01.172Z,9.89
2023-02-19T07:21:28.209Z,9.81
2023-02-19T07:23:54.625Z,9.85
2023-02-19T07:26:21.759Z,9.88
2023-02-19T07:28:49.421Z,9.78
2023-02-19T07:31:16.559Z,9.85
2023-02-19T07:33:46.744Z,9.59
2023-02-19T07:36:14.279Z,9.58
2023-02-19T07:38:40.683Z,9.70
2023-02-19T07:41:07.190Z,9.35
2023-02-19T07:43:34.524Z,9.26
2023-02-19T07:46:11.111Z,9.13
2023-02-19T07:48:38.218Z,9.28
2023-02-19T07:51:06.006Z,9.12
2023-02-19T07:53:33.752Z,9.22
2023-02-19T07:56:01.778Z,9.44
2023-02-19T07:58:28.509Z,9.39
2023-02-19T08:00:54.940Z,9.45
2023-02-19T08:03:21.339Z,9.50
2023-02-19T08:05:49.789Z,9.33
2023-02-19T08:08:16.150Z,9.12
2023-02-19T08:11:01.300Z,9.12
2023-02-19T08:13:30.018Z,9.22
2023-02-19T08:16:18.258Z,9.25
2023-02-19T08:18:48.891Z,9.32
2023-02-19T08:21:18.165Z,9.31
2023-02-19T08:23:46.264Z,9.25
2023-02-19T08:26:12.765Z,9.30
2023-02-19T08:28:39.348Z,9.30
2023-02-19T08:31:07.057Z,9.32
2023-02-19T08:33:33.581Z,9.37
2023-02-19T08:36:06.946Z,9.12
2023-02-19T08:38:35.770Z,8.98
2023-02-19T08:41:12.560Z,9.22
2023-02-19T08:43:39.457Z,9.17
2023-02-19T08:46:07.065Z,9.21
2023-02-19T08:48:33.948Z,9.28
2023-02-19T08:51:03.911Z,9.18
2023-02-19T08:53:33.058Z,9.12
2023-02-19T08:55:59.407Z,9.13
2023-02-19T08:58:26.282Z,9.07
2023-02-19T09:00:53.148Z,9.17
2023-02-19T09:03:19.522Z,9.17
2023-02-19T09:05:46.919Z,9.27
2023-02-19T09:08:13.277Z,9.37
2023-02-19T09:10:39.868Z,9.34
2023-02-19T09:13:06.206Z,9.09
2023-02-19T09:15:33.417Z,9.12
2023-02-19T09:18:00.198Z,9.18
2023-02-19T09:20:26.608Z,9.23
2023-02-19T09:22:56.652Z,9.21
2023-02-19T09:25:23.260Z,9.13
2023-02-19T09:27:49.748Z,9.14
2023-02-19T09:30:43.000Z,9.23
2023-02-19T09:33:09.673Z,9.22
2023-02-19T09:35:38.737Z,9.02
2023-02-19T09:38:05.159Z,8.78
2023-02-19T09:40:31.841Z,8.58
2023-02-19T09:43:00.872Z,8.68
2023-02-19T09:45:28.075Z,8.72
2023-02-19T09:47:56.504Z,8.60
2023-02-19T09:50:24.985Z,8.75
2023-02-19T09:52:53.614Z,8.68
2023-02-19T09:55:32.472Z,8.64
2023-02-19T09:58:00.455Z,8.60
2023-02-19T10:00:29.559Z,8.90
2023-02-19T10:03:06.783Z,8.90
2023-02-19T10:05:34.299Z,8.90
2023-02-19T10:08:04.419Z,8.81
2023-02-19T10:10:32.558Z,8.86
2023-02-19T10:13:17.646Z,9.13
2023-02-19T10:15:49.037Z,8.95
2023-02-19T10:18:20.456Z,9.24
2023-02-19T10:20:47.749Z,9.26
2023-02-19T10:23:15.176Z,9.33
2023-02-19T10:25:44.868Z,9.46
2023-02-19T10:28:14.437Z,9.35
2023-02-19T10:30:41.233Z,9.35
2023-02-19T10:33:12.717Z,9.69
2023-02-19T10:35:51.704Z,9.62
2023-02-19T10:38:19.092Z,10.23
2023-02-19T10:40:46.251Z,10.63
2023-02-19T10:43:31.593Z,10.82
2023-02-19T10:45:58.534Z,10.77
2023-02-19T10:48:40.800Z,10.93
2023-02-19T10:51:10.013Z,10.83
2023-02-19T10:53:44.943Z,10.83
2023-02-19T10:56:24.796Z,10.76
2023-02-19T10:58:51.543Z,10.45
2023-02-19T11:01:19.582Z,10.72
2023-02-19T11:03:47.066Z,10.74
2023-02-19T11:06:14.358Z,10.49
2023-02-19T11:08:49.077Z,10.41
2023-02-19T11:11:23.330Z,10.83
2023-02-19T11:13:49.848Z,11.07
2023-02-19T11:16:16.233Z,11.28
2023-02-19T11:18:45.039Z,11.42
2023-02-19T11:21:34.798Z,11.36
2023-02-19T11:24:03.721Z,11.69
2023-02-19T11:26:32.310Z,11.65
2023-02-19T11:29:00.095Z,11.75
2023-02-19T11:31:27.715Z,11.57
2023-02-19T11:33:55.951Z,11.63
2023-02-19T11:36:26.848Z,11.78
2023-02-19T11:38:55.350Z,11.75
2023-02-19T11:41:36.418Z,11.78
2023-02-19T11:44:11.516Z,11.85
2023-02-19T11:46:43.831Z,11.68
2023-02-19T11:49:32.972Z,11.69
2023-02-19T11:52:23.302Z,11.54
2023-02-19T11:54:50.910Z,11.56
2023-02-19T11:57:35.514Z,11.69
2023-02-19T12:00:20.800Z,11.81
2023-02-19T12:03:11.060Z,11.86
2023-02-19T12:05:46.538Z,11.20
2023-02-19T12:08:18.991Z,11.52
2023-02-19T12:10:51.694Z,11.49
2023-02-19T12:13:28.561Z,11.90
2023-02-19T12:16:07.069Z,12.20
2023-02-19T12:18:40.902Z,12.15
2023-02-19T12:21:26.061Z,12.39
2023-02-19T12:23:59.005Z,12.50
2023-02-19T12:26:47.447Z,12.47
2023-02-19T12:29:17.033Z,12.55
2023-02-19T12:32:01.589Z,12.59
2023-02-19T12:34:30.786Z,12.94
2023-02-19T12:37:12.840Z,12.95
2023-02-19T12:39:59.100Z,13.06
2023-02-19T12:42:28.421Z,12.87
2023-02-19T12:44:58.328Z,11.70
2023-02-19T12:47:28.911Z,12.20
2023-02-19T12:49:58.053Z,12.17
2023-02-19T12:52:31.640Z,11.82
2023-02-19T12:55:01.512Z,12.05
2023-02-19T12:57:30.119Z,12.19
2023-02-19T13:00:07.490Z,12.23
2023-02-19T13:02:40.641Z,12.28
2023-02-19T13:05:19.476Z,12.36
2023-02-19T13:07:55.202Z,12.35
2023-02-19T13:10:24.382Z,12.34
2023-02-19T13:12:51.564Z,12.46
2023-02-19T13:15:24.276Z,12.12
2023-02-19T13:17:52.090Z,12.34
2023-02-19T13:20:21.697Z,12.54
2023-02-19T13:23:20.089Z,12.44
2023-02-19T13:26:01.811Z,12.64
2023-02-19T13:28:40.098Z,12.56
2023-02-19T13:31:39.256Z,12.37
2023-02-19T13:34:05.762Z,12.52
2023-02-19T13:36:35.030Z,12.62
2023-02-19T13:39:04.858Z,12.51
2023-02-19T13:41:40.181Z,12.53
2023-02-19T13:44:08.251Z,12.14
2023-02-19T13:46:37.596Z,12.11
2023-02-19T13:49:22.650Z,12.32
2023-02-19T13:51:56.269Z,12.48
2023-02-19T13:54:28.147Z,12.54
2023-02-19T13:57:23.907Z,12.55
2023-02-19T13:59:51.147Z,12.45
2023-02-19T14:02:20.701Z,12.34
2023-02-19T14:05:05.552Z,12.30
2023-02-19T14:07:37.752Z,12.42
2023-02-19T14:10:05.450Z,12.23
2023-02-19T14:12:33.088Z,12.12
2023-02-19T14:15:19.512Z,12.19
2023-02-19T14:17:46.004Z,12.12
2023-02-19T14:20:15.456Z,12.22
2023-02-19T14:22:44.879Z,12.24
2023-02-19T14:25:29.797Z,12.09
2023-02-19T14:28:15.543Z,11.96
2023-02-19T14:30:52.835Z,11.68
2023-02-19T14:33:21.696Z,11.82
2023-02-19T14:35:51.280Z,11.81
2023-02-19T14:38:22.412Z,11.81
2023-02-19T14:40:49.668Z,11.75
2023-02-19T14:43:17.664Z,11.60
2023-02-19T14:45:53.648Z,11.48
2023-02-19T14:48:26.777Z,11.35
2023-02-19T14:50:56.648Z,11.30
2023-02-19T14:53:24.536Z,11.23
2023-02-19T14:55:51.491Z,11.11
2023-02-19T14:58:26.299Z,11.09
2023-02-19T15:00:52.761Z,11.03
2023-02-19T15:03:28.507Z,11.00
2023-02-19T15:05:56.446Z,11.02
2023-02-19T15:08:27.124Z,11.01
2023-02-19T15:10:56.523Z,10.95
2023-02-19T15:13:26.902Z,10.93
2023-02-19T15:15:55.115Z,10.71
2023-02-19T15:18:22.776Z,10.70
2023-02-19T15:20:50.003Z,10.63
2023-02-19T15:23:23.627Z,10.58
2023-02-19T15:25:50.357Z,10.48
2023-02-19T15:28:25.957Z,10.46
2023-02-19T15:30:58.099Z,10.44
2023-02-19T15:33:27.089Z,10.43
2023-02-19T15:35:56.148Z,10.38
2023-02-19T15:38:22.553Z,10.37
2023-02-19T15:40:49.548Z,10.36
2023-02-19T15:43:28.333Z,10.29
2023-02-19T15:45:58.983Z,10.32
2023-02-19T15:48:27.652Z,10.31
2023-02-19T15:50:59.440Z,10.30
2023-02-19T15:53:30.097Z,10.13
2023-02-19T15:56:09.119Z,10.05
2023-02-19T15:58:47.003Z,10.05
2023-02-19T16:01:27.327Z,9.98
2023-02-19T16:03:54.320Z,9.95
2023-02-19T16:06:21.548Z,9.92
2023-02-19T16:09:07.108Z,9.94
2023-02-19T16:11:40.650Z,9.93
2023-02-19T16:14:23.731Z,9.94
2023-02-19T16:16:52.561Z,9.81
2023-02-19T16:19:23.920Z,9.88
2023-02-19T16:21:51.085Z,9.80
2023-02-19T16:24:35.288Z,9.78
2023-02-19T16:27:02.743Z,9.73
2023-02-19T16:29:30.619Z,9.77
2023-02-19T16:31:58.853Z,9.72
2023-02-19T16:34:40.086Z,9.60
2023-02-19T16:37:25.395Z,9.67
2023-02-19T16:40:11.434Z,9.71
2023-02-19T16:42:57.776Z,9.66
2023-02-19T16:45:27.344Z,9.65
2023-02-19T16:47:53.934Z,9.68
2023-02-19T16:50:21.972Z,9.66
2023-02-19T16:52:53.141Z,9.68
2023-02-19T16:55:19.866Z,9.63
2023-02-19T16:57:46.291Z,9.63
2023-02-19T17:00:19.793Z,9.63
2023-02-19T17:02:50.972Z,9.65
2023-02-19T17:05:18.116Z,9.63
2023-02-19T17:07:44.573Z,9.60
2023-02-19T17:10:16.508Z,9.56
2023-02-19T17:12:42.979Z,9.63
2023-02-19T17:15:09.362Z,9.64
2023-02-19T17:17:36.113Z,9.60
2023-02-19T17:20:02.512Z,9.49
2023-02-19T17:22:29.326Z,9.48
2023-02-19T17:24:55.715Z,9.47
2023-02-19T17:27:22.140Z,9.40
2023-02-19T17:29:48.519Z,9.36
2023-02-19T17:32:15.166Z,9.35
2023-02-19T17:34:42.087Z,9.39
2023-02-19T17:37:10.730Z,9.39
2023-02-19T17:39:37.332Z,9.41
2023-02-19T17:42:04.002Z,9.37
2023-02-19T17:44:30.389Z,9.30
2023-02-19T17:46:56.974Z,9.19
2023-02-19T17:49:23.340Z,9.17
2023-02-19T17:51:49.765Z,9.18
2023-02-19T17:54:16.269Z,9.08
2023-02-19T17:56:45.649Z,9.00
2023-02-19T17:59:12.230Z,8.99
2023-02-19T18:01:38.872Z,9.01
2023-02-19T18:04:05.632Z,8.96
2023-02-19T18:06:32.170Z,9.01
2023-02-19T18:08:58.662Z,9.01
2023-02-19T18:11:25.090Z,8.93
2023-02-19T18:13:51.930Z,8.94
2023-02-19T18:16:18.579Z,8.96
2023-02-19T18:18:44.989Z,8.99
2023-02-19T18:21:12.972Z,8.94
2023-02-19T18:23:39.598Z,8.90
2023-02-19T18:26:10.355Z,8.87
2023-02-19T18:28:37.592Z,8.87
2023-02-19T18:31:04.128Z,8.93
2023-02-19T18:33:30.687Z,8.86
2023-02-19T18:35:57.036Z,8.87
2023-02-19T18:38:23.454Z,8.83
2023-02-19T18:40:49.910Z,8.85
2023-02-19T18:43:16.291Z,8.91
2023-02-19T18:45:43.359Z,8.85
2023-02-19T18:48:09.901Z,8.88
2023-02-19T18:50:36.239Z,8.90
2023-02-19T18:53:02.689Z,8.92
2023-02-19T18:55:29.117Z,8.91
2023-02-19T18:57:55.492Z,8.89
2023-02-19T19:00:23.631Z,8.83
2023-02-19T19:02:51.427Z,8.71
2023-02-19T19:05:21.239Z,8.79
2023-02-19T19:07:47.578Z,8.85
2023-02-19T19:10:14.800Z,8.88
2023-02-19T19:12:41.276Z,8.84
2023-02-19T19:15:07.949Z,8.81
2023-02-19T19:17:34.520Z,8.77
2023-02-19T19:20:00.877Z,8.80
2023-02-19T19:22:27.321Z,8.83
2023-02-19T19:24:53.810Z,8.85
2023-02-19T19:27:20.316Z,8.81
2023-02-19T19:29:47.842Z,8.78
2023-02-19T19:32:14.436Z,8.78
2023-02-19T19:34:41.051Z,8.74
2023-02-19T19:37:07.404Z,8.71
2023-02-19T19:39:33.780Z,8.71
2023-02-19T19:42:00.203Z,8.69
2023-02-19T19:44:26.747Z,8.72
2023-02-19T19:46:55.373Z,8.71
2023-02-19T19:49:22.472Z,8.70
2023-02-19T19:51:49.100Z,8.66
2023-02-19T19:54:15.589Z,8.64
2023-02-19T19:56:42.595Z,8.62
2023-02-19T19:59:10.439Z,8.58
2023-02-19T20:01:36.926Z,8.58
2023-02-19T20:04:03.477Z,8.54
2023-02-19T20:06:31.045Z,8.54
2023-02-19T20:08:58.238Z,8.55
2023-02-19T20:11:24.599Z,8.52
2023-02-19T20:13:51.009Z,8.52
2023-02-19T20:16:22.809Z,8.53
2023-02-19T20:18:49.227Z,8.52
2023-02-19T20:21:15.752Z,8.50
2023-02-19T20:23:42.125Z,8.44
2023-02-19T20:26:08.609Z,8.42
2023-02-19T20:28:34.997Z,8.38
2023-02-19T20:31:01.365Z,8.30
2023-02-19T20:33:27.780Z,8.25
2023-02-19T20:35:54.229Z,8.21
2023-02-19T20:38:20.758Z,8.20
2023-02-19T20:40:47.209Z,8.15
2023-02-19T20:43:13.549Z,8.10
2023-02-19T20:45:40.987Z,8.02
2023-02-19T20:48:07.437Z,7.95
2023-02-19T20:50:33.839Z,7.80
2023-02-19T20:53:00.327Z,7.73
2023-02-19T20:55:26.683Z,7.65
2023-02-19T20:57:53.099Z,7.56
2023-02-19T21:00:19.823Z,7.53
2023-02-19T21:02:46.270Z,7.42
2023-02-19T21:05:13.587Z,7.37
2023-02-19T21:07:40.134Z,7.32
2023-02-19T21:10:06.894Z,7.30
2023-02-19T21:12:33.889Z,7.26
2023-02-19T21:15:00.505Z,7.19
2023-02-19T21:17:27.486Z,7.14
2023-02-19T21:19:53.996Z,7.19
2023-02-19T21:22:20.522Z,7.13
2023-02-19T21:24:51.928Z,7.13
2023-02-19T21:27:21.214Z,7.12
2023-02-19T21:29:47.712Z,7.11
2023-02-19T21:32:14.559Z,7.05
2023-02-19T21:34:42.120Z,7.07
2023-02-19T21:37:08.449Z,7.03
2023-02-19T21:39:34.878Z,6.98
2023-02-19T21:42:02.541Z,7.00
2023-02-19T21:44:29.104Z,7.03
2023-02-19T21:46:56.012Z,7.04
2023-02-19T21:49:22.494Z,7.10
2023-02-19T21:51:50.241Z,7.13
2023-02-19T21:54:26.098Z,7.12
2023-02-19T21:56:53.509Z,7.14
2023-02-19T21:59:20.896Z,7.13
2023-02-19T22:01:47.348Z,7.09
2023-02-19T22:04:15.005Z,7.09
2023-02-19T22:06:41.859Z,7.08
2023-02-19T22:09:08.747Z,7.10
2023-02-19T22:11:35.525Z,7.11
2023-02-19T22:14:02.673Z,7.03
2023-02-19T22:16:29.195Z,7.00
2023-02-19T22:18:57.012Z,7.04
2023-02-19T22:21:24.842Z,6.98
2023-02-19T22:23:52.452Z,6.99
2023-02-19T22:26:21.748Z,7.00
2023-02-19T22:28:48.190Z,6.92
2023-02-19T22:31:15.985Z,6.90
2023-02-19T22:33:42.525Z,6.88
2023-02-19T22:36:14.797Z,6.93
2023-02-19T22:38:41.120Z,6.86
2023-02-19T22:41:07.548Z,6.87
2023-02-19T22:43:33.919Z,6.86
2023-02-19T22:46:00.415Z,6.86
2023-02-19T22:48:30.008Z,6.86
2023-02-19T22:50:58.709Z,6.86
2023-02-19T22:53:25.287Z,6.89
2023-02-19T22:55:51.724Z,6.89
2023-02-19T22:58:18.117Z,6.90
2023-02-19T23:00:44.493Z,6.89
2023-02-19T23:03:11.106Z,6.89
2023-02-19T23:05:37.922Z,6.85
2023-02-19T23:08:04.531Z,6.89
2023-02-19T23:10:30.941Z,6.94
2023-02-19T23:12:57.746Z,7.02
2023-02-19T23:15:24.435Z,7.05
2023-02-19T23:17:51.173Z,7.01
2023-02-19T23:20:18.213Z,7.10
2023-02-19T23:22:44.665Z,7.13
2023-02-19T23:25:11.096Z,7.12
2023-02-19T23:27:37.621Z,7.18
2023-02-19T23:30:04.431Z,7.23
2023-02-19T23:32:31.026Z,7.20
2023-02-19T23:34:57.403Z,7.29
2023-02-19T23:37:23.819Z,7.34
2023-02-19T23:39:50.205Z,7.35
2023-02-19T23:42:16.952Z,7.30
2023-02-19T23:44:45.670Z,7.35
2023-02-19T23:47:12.124Z,7.38
2023-02-19T23:49:38.472Z,7.36
2023-02-19T23:52:04.902Z,7.35
2023-02-19T23:54:31.479Z,7.31
2023-02-19T23:56:58.107Z,7.33
2023-02-19T23:59:27.175Z,7.35
